INFORMACIÓN METAR y TAF
METAR FOR LEZG
ADDS - METARS form results

(1137 UTC 17 February 2019)
Data provider http://aviationweather.gov/metar/data/
 
METAR text: LEZG 171130Z 09007KT 070V130 CAVOK 12/M05 Q1026
Conditions at: LEZG (ZARAGOZA (MIL/CI, ES) observed 1130 UTC 17 February 2019
Temperature: 12.0°C (54°F)
Dewpoint: -5.0°C (23°F) [RH = 30%]
Pressure (altimeter): 30.30 inches Hg (1026.0 mb)
Winds: from the E (90 degrees) at 8 MPH (7 knots; 3.6 m/s)
Visibility: 6 or more miles (10+ km)
Ceiling: ceiling and visibility are OK
Clouds: unknown
Weather: no significant weather observed at this time

METAR text: LEZG 171100Z 10006KT 060V130 CAVOK 10/M05 Q1026
Conditions at: LEZG (ZARAGOZA (MIL/CI, ES) observed 1100 UTC 17 February 2019
Temperature: 10.0°C (50°F)
Dewpoint: -5.0°C (23°F) [RH = 34%]
Pressure (altimeter): 30.30 inches Hg (1026.0 mb)
Winds: from the E (100 degrees) at 7 MPH (6 knots; 3.1 m/s)
Visibility: 6 or more miles (10+ km)
Ceiling: ceiling and visibility are OK
Clouds: unknown
Weather: no significant weather observed at this time

Forecast for: LEZG (ZARAGOZA (MIL/CI, ES)
Text: TAF LEZG 171100Z 1712/1812 10005KT 9999 FEW020 TX17/1715Z TN04/1807Z
Forecast period: 1200 UTC 17 February 2019 to 1200 UTC 18 February 2019
Forecast type: FROM: standard forecast or significant change
Winds: from the E (100 degrees) at 6 MPH (5 knots; 2.6 m/s)
Visibility: 6 or more miles 10+ km)
Ceiling: at least 12,000 feet AGL
Clouds: few clouds at 2000 feet AGL
Weather: no significant weather forecast for this period
Text: TEMPO 1712/1720 10011KT
Forecast period: 1200 to 2000 UTC 17 February 2019
Forecast type: TEMPORARY: The following changes expected for less than half the time period
Winds: from the E (100 degrees) at 13 MPH (11 knots; 5.7 m/s)
Visibility: missing
Ceiling: unknown
Clouds: missing
Weather: no significant weather forecast for this period

 MAPA DE AEROPUERTO

 INFORMACIÓN DE PISTA
Pista 12L Longitud 9843 ft Ancho 148 ft
Elevación 823 ft Umbral desplazado 0 ft Rumbo de pista 120
Pista 30R Longitud 9843 ft Ancho 148 ft
Elevación 834 ft Umbral desplazado 0 ft Rumbo de pista 300
Pista 12R Longitud 12198 ft Ancho 148 ft
Elevación 834 ft Umbral desplazado 0 ft Rumbo de pista 120
Pista 30L Longitud 12198 ft Ancho 148 ft
Elevación 863 ft Umbral desplazado 0 ft Rumbo de pista 300

 FRECUANCIAS DEL AEROPUERTO
Tipo APP Nombre APP Frecuencia 119.3 MHZ
Tipo GND Nombre GND Frecuencia 118.1 MHZ
Tipo TWR Nombre TWR Frecuencia 118.1 MHZ

 RADIO AYUDAS DEL AEROPUERTO
Tipo VOR-DME Nombre Zaragoza Frecuencia 113000 KHZ
Tipo NDB Nombre Zaragoza Frecuencia 389 KHZ
Tipo TACAN Nombre Zaragoza Frecuencia 133700 KHZ
Tipo NDB Nombre Zaragoza Frecuencia 348 KHZ



Powered by Virtual Airlines Manager [v2.6.2]